sensor_id;sensor_type;location;lat;lon;timestamp;pressure;altitude;pressure_sealevel;temperature;humidity
43838;BME280;65998;46.256;7.534;2023-07-20T00:00:09;87134.78;;;18.69;100.00
43838;BME280;65998;46.256;7.534;2023-07-20T00:03:13;87135.38;;;18.72;100.00
43838;BME280;65998;46.256;7.534;2023-07-20T00:05:39;87134.88;;;18.67;97.20
43838;BME280;65998;46.256;7.534;2023-07-20T00:08:05;87135.75;;;18.62;100.00
43838;BME280;65998;46.256;7.534;2023-07-20T00:10:31;87132.66;;;18.51;100.00
43838;BME280;65998;46.256;7.534;2023-07-20T00:12:56;87133.28;;;18.33;100.00
43838;BME280;65998;46.256;7.534;2023-07-20T00:15:23;87140.00;;;18.40;100.00
43838;BME280;65998;46.256;7.534;2023-07-20T00:17:48;87143.03;;;18.52;100.00
43838;BME280;65998;46.256;7.534;2023-07-20T00:20:14;87138.66;;;18.58;100.00
43838;BME280;65998;46.256;7.534;2023-07-20T00:22:40;87144.91;;;18.58;100.00
43838;BME280;65998;46.256;7.534;2023-07-20T00:25:07;87142.25;;;18.35;100.00
43838;BME280;65998;46.256;7.534;2023-07-20T00:27:32;87147.69;;;18.18;100.00
43838;BME280;65998;46.256;7.534;2023-07-20T00:29:58;87143.22;;;18.28;100.00
43838;BME280;65998;46.256;7.534;2023-07-20T00:32:24;87153.84;;;18.42;100.00
43838;BME280;65998;46.256;7.534;2023-07-20T00:34:50;87151.09;;;18.21;100.00
43838;BME280;65998;46.256;7.534;2023-07-20T00:37:16;87150.06;;;18.31;100.00
43838;BME280;65998;46.256;7.534;2023-07-20T00:39:42;87151.03;;;18.23;100.00
43838;BME280;65998;46.256;7.534;2023-07-20T00:42:08;87149.25;;;18.13;100.00
43838;BME280;65998;46.256;7.534;2023-07-20T00:44:34;87142.69;;;18.02;100.00
43838;BME280;65998;46.256;7.534;2023-07-20T00:46:59;87144.31;;;17.95;100.00
43838;BME280;65998;46.256;7.534;2023-07-20T00:49:25;87138.97;;;17.89;100.00
43838;BME280;65998;46.256;7.534;2023-07-20T00:51:51;87143.31;;;18.05;100.00
43838;BME280;65998;46.256;7.534;2023-07-20T00:54:18;87138.00;;;18.17;100.00
43838;BME280;65998;46.256;7.534;2023-07-20T00:56:44;87141.31;;;18.22;100.00
43838;BME280;65998;46.256;7.534;2023-07-20T00:59:11;87137.47;;;18.13;100.00
43838;BME280;65998;46.256;7.534;2023-07-20T01:01:37;87131.19;;;17.94;100.00
43838;BME280;65998;46.256;7.534;2023-07-20T01:04:03;87139.31;;;17.79;100.00
43838;BME280;65998;46.256;7.534;2023-07-20T01:11:43;87138.38;;;17.86;100.00
43838;BME280;65998;46.256;7.534;2023-07-20T01:14:14;87139.94;;;17.81;100.00
43838;BME280;65998;46.256;7.534;2023-07-20T01:16:39;87134.03;;;17.71;100.00
43838;BME280;65998;46.256;7.534;2023-07-20T01:19:05;87137.34;;;17.52;100.00
43838;BME280;65998;46.256;7.534;2023-07-20T01:21:36;87140.53;;;17.61;100.00
43838;BME280;65998;46.256;7.534;2023-07-20T01:24:17;87138.69;;;17.76;100.00
43838;BME280;65998;46.256;7.534;2023-07-20T01:27:20;87134.91;;;17.86;100.00
43838;BME280;65998;46.256;7.534;2023-07-20T01:33:09;87130.91;;;17.81;96.96
43838;BME280;65998;46.256;7.534;2023-07-20T01:35:36;87119.88;;;17.56;100.00
43838;BME280;65998;46.256;7.534;2023-07-20T01:38:03;87125.47;;;17.33;100.00
43838;BME280;65998;46.256;7.534;2023-07-20T01:40:30;87130.16;;;17.39;100.00
43838;BME280;65998;46.256;7.534;2023-07-20T01:42:56;87130.78;;;17.18;100.00
43838;BME280;65998;46.256;7.534;2023-07-20T01:45:22;87121.06;;;17.19;100.00
43838;BME280;65998;46.256;7.534;2023-07-20T01:47:48;87126.41;;;17.26;100.00
43838;BME280;65998;46.256;7.534;2023-07-20T01:50:14;87128.59;;;17.00;100.00
43838;BME280;65998;46.256;7.534;2023-07-20T01:52:40;87120.50;;;17.15;100.00
43838;BME280;65998;46.256;7.534;2023-07-20T01:55:06;87124.13;;;17.09;100.00
43838;BME280;65998;46.256;7.534;2023-07-20T01:57:32;87120.69;;;16.86;100.00
43838;BME280;65998;46.256;7.534;2023-07-20T01:59:58;87120.06;;;17.06;100.00
43838;BME280;65998;46.256;7.534;2023-07-20T02:02:26;87125.75;;;17.02;100.00
43838;BME280;65998;46.256;7.534;2023-07-20T02:04:52;87126.56;;;16.99;100.00
43838;BME280;65998;46.256;7.534;2023-07-20T02:07:18;87121.75;;;16.97;100.00
43838;BME280;65998;46.256;7.534;2023-07-20T02:09:44;87124.88;;;16.85;100.00
43838;BME280;65998;46.256;7.534;2023-07-20T02:12:10;87121.91;;;16.68;100.00
43838;BME280;65998;46.256;7.534;2023-07-20T02:14:36;87123.72;;;16.78;100.00
43838;BME280;65998;46.256;7.534;2023-07-20T02:17:01;87127.09;;;16.80;100.00
43838;BME280;65998;46.256;7.534;2023-07-20T02:19:29;87121.69;;;16.76;100.00
43838;BME280;65998;46.256;7.534;2023-07-20T02:21:55;87112.91;;;16.68;100.00
43838;BME280;65998;46.256;7.534;2023-07-20T02:24:21;87120.31;;;16.75;100.00
43838;BME280;65998;46.256;7.534;2023-07-20T02:26:47;87120.25;;;16.77;100.00
43838;BME280;65998;46.256;7.534;2023-07-20T02:29:13;87118.91;;;16.76;100.00
43838;BME280;65998;46.256;7.534;2023-07-20T02:31:38;87124.34;;;16.80;100.00
43838;BME280;65998;46.256;7.534;2023-07-20T02:34:07;87129.16;;;16.82;100.00
43838;BME280;65998;46.256;7.534;2023-07-20T02:36:34;87129.88;;;16.80;100.00
43838;BME280;65998;46.256;7.534;2023-07-20T02:39:00;87128.72;;;16.73;100.00
43838;BME280;65998;46.256;7.534;2023-07-20T02:41:26;87128.94;;;16.65;100.00
43838;BME280;65998;46.256;7.534;2023-07-20T02:43:52;87129.63;;;16.66;100.00
43838;BME280;65998;46.256;7.534;2023-07-20T02:46:17;87128.97;;;16.63;100.00
43838;BME280;65998;46.256;7.534;2023-07-20T02:48:43;87129.06;;;16.59;100.00
43838;BME280;65998;46.256;7.534;2023-07-20T02:51:09;87131.91;;;16.57;100.00
43838;BME280;65998;46.256;7.534;2023-07-20T02:53:35;87134.69;;;16.57;100.00
43838;BME280;65998;46.256;7.534;2023-07-20T02:56:01;87133.69;;;16.44;100.00
43838;BME280;65998;46.256;7.534;2023-07-20T02:58:27;87138.78;;;16.35;100.00
43838;BME280;65998;46.256;7.534;2023-07-20T03:00:52;87140.38;;;16.28;100.00
43838;BME280;65998;46.256;7.534;2023-07-20T03:03:18;87132.72;;;16.28;100.00
43838;BME280;65998;46.256;7.534;2023-07-20T03:05:44;87136.78;;;16.32;100.00
43838;BME280;65998;46.256;7.534;2023-07-20T03:08:10;87141.16;;;16.24;100.00
43838;BME280;65998;46.256;7.534;2023-07-20T03:10:39;87136.63;;;16.38;100.00
43838;BME280;65998;46.256;7.534;2023-07-20T03:13:06;87138.53;;;16.43;100.00
43838;BME280;65998;46.256;7.534;2023-07-20T03:15:32;87135.88;;;16.39;100.00
43838;BME280;65998;46.256;7.534;2023-07-20T03:17:58;87136.44;;;16.44;100.00
43838;BME280;65998;46.256;7.534;2023-07-20T03:20:24;87142.44;;;16.52;100.00
43838;BME280;65998;46.256;7.534;2023-07-20T03:22:50;87135.09;;;16.43;100.00
43838;BME280;65998;46.256;7.534;2023-07-20T03:25:15;87134.94;;;16.24;100.00
43838;BME280;65998;46.256;7.534;2023-07-20T03:27:41;87132.66;;;16.06;100.00
43838;BME280;65998;46.256;7.534;2023-07-20T03:30:07;87140.81;;;16.12;100.00
43838;BME280;65998;46.256;7.534;2023-07-20T03:32:33;87137.03;;;16.23;100.00
43838;BME280;65998;46.256;7.534;2023-07-20T03:34:59;87138.56;;;16.18;100.00
43838;BME280;65998;46.256;7.534;2023-07-20T03:37:25;87146.06;;;16.22;100.00
43838;BME280;65998;46.256;7.534;2023-07-20T03:39:51;87143.47;;;16.41;100.00
43838;BME280;65998;46.256;7.534;2023-07-20T03:42:16;87146.75;;;16.47;100.00
43838;BME280;65998;46.256;7.534;2023-07-20T03:44:42;87143.31;;;16.22;100.00
43838;BME280;65998;46.256;7.534;2023-07-20T03:47:08;87139.91;;;16.19;100.00
43838;BME280;65998;46.256;7.534;2023-07-20T03:49:34;87145.50;;;16.17;100.00
43838;BME280;65998;46.256;7.534;2023-07-20T03:52:00;87140.28;;;16.05;100.00
43838;BME280;65998;46.256;7.534;2023-07-20T03:54:26;87145.66;;;15.86;100.00
43838;BME280;65998;46.256;7.534;2023-07-20T03:56:52;87143.44;;;15.91;100.00
43838;BME280;65998;46.256;7.534;2023-07-20T03:59:18;87145.69;;;15.84;100.00
43838;BME280;65998;46.256;7.534;2023-07-20T04:01:44;87143.19;;;15.74;100.00
43838;BME280;65998;46.256;7.534;2023-07-20T04:04:09;87141.28;;;15.69;100.00
43838;BME280;65998;46.256;7.534;2023-07-20T04:06:35;87142.53;;;15.74;100.00
43838;BME280;65998;46.256;7.534;2023-07-20T04:09:02;87135.97;;;15.85;100.00
43838;BME280;65998;46.256;7.534;2023-07-20T04:11:28;87138.03;;;15.87;100.00
43838;BME280;65998;46.256;7.534;2023-07-20T04:13:54;87137.84;;;15.93;100.00
43838;BME280;65998;46.256;7.534;2023-07-20T04:16:20;87137.34;;;15.86;100.00
43838;BME280;65998;46.256;7.534;2023-07-20T04:18:45;87146.03;;;15.72;100.00
43838;BME280;65998;46.256;7.534;2023-07-20T04:21:11;87141.00;;;15.79;100.00
43838;BME280;65998;46.256;7.534;2023-07-20T04:23:37;87144.00;;;15.71;100.00
43838;BME280;65998;46.256;7.534;2023-07-20T04:26:03;87141.22;;;15.71;100.00
43838;BME280;65998;46.256;7.534;2023-07-20T04:28:29;87147.63;;;15.90;100.00
43838;BME280;65998;46.256;7.534;2023-07-20T04:30:54;87132.59;;;15.83;100.00
43838;BME280;65998;46.256;7.534;2023-07-20T04:33:20;87138.69;;;15.87;100.00
43838;BME280;65998;46.256;7.534;2023-07-20T04:35:53;87137.81;;;15.95;100.00
43838;BME280;65998;46.256;7.534;2023-07-20T04:38:20;87141.41;;;15.89;100.00
43838;BME280;65998;46.256;7.534;2023-07-20T04:40:49;87143.19;;;16.01;100.00
43838;BME280;65998;46.256;7.534;2023-07-20T04:43:16;87136.66;;;15.86;100.00
43838;BME280;65998;46.256;7.534;2023-07-20T04:45:42;87145.59;;;15.61;100.00
43838;BME280;65998;46.256;7.534;2023-07-20T04:48:16;87145.72;;;15.55;100.00
43838;BME280;65998;46.256;7.534;2023-07-20T04:50:44;87143.59;;;15.58;100.00
43838;BME280;65998;46.256;7.534;2023-07-20T04:53:13;87143.16;;;15.76;100.00
43838;BME280;65998;46.256;7.534;2023-07-20T04:55:40;87144.44;;;15.79;100.00
43838;BME280;65998;46.256;7.534;2023-07-20T04:58:06;87148.09;;;15.99;100.00
43838;BME280;65998;46.256;7.534;2023-07-20T05:00:33;87149.97;;;16.06;100.00
43838;BME280;65998;46.256;7.534;2023-07-20T05:02:59;87140.13;;;16.11;100.00
43838;BME280;65998;46.256;7.534;2023-07-20T05:05:25;87141.28;;;16.20;100.00
43838;BME280;65998;46.256;7.534;2023-07-20T05:07:51;87139.75;;;16.25;100.00
43838;BME280;65998;46.256;7.534;2023-07-20T05:10:17;87142.47;;;16.27;100.00
43838;BME280;65998;46.256;7.534;2023-07-20T05:12:43;87139.41;;;16.13;100.00
43838;BME280;65998;46.256;7.534;2023-07-20T05:15:09;87138.59;;;15.64;100.00
43838;BME280;65998;46.256;7.534;2023-07-20T05:17:35;87135.84;;;15.64;100.00
43838;BME280;65998;46.256;7.534;2023-07-20T05:20:01;87132.72;;;16.04;100.00
43838;BME280;65998;46.256;7.534;2023-07-20T05:22:26;87129.25;;;15.78;100.00
43838;BME280;65998;46.256;7.534;2023-07-20T05:24:52;87133.47;;;15.75;100.00
43838;BME280;65998;46.256;7.534;2023-07-20T05:27:18;87139.22;;;15.67;100.00
43838;BME280;65998;46.256;7.534;2023-07-20T05:29:45;87131.03;;;15.63;100.00
43838;BME280;65998;46.256;7.534;2023-07-20T05:32:11;87141.69;;;15.79;100.00
43838;BME280;65998;46.256;7.534;2023-07-20T05:34:37;87135.66;;;15.98;100.00
43838;BME280;65998;46.256;7.534;2023-07-20T05:37:02;87138.72;;;16.12;100.00
43838;BME280;65998;46.256;7.534;2023-07-20T05:39:28;87132.16;;;16.24;100.00
43838;BME280;65998;46.256;7.534;2023-07-20T05:41:54;87138.66;;;16.39;100.00
43838;BME280;65998;46.256;7.534;2023-07-20T05:44:20;87127.34;;;16.22;90.33
43838;BME280;65998;46.256;7.534;2023-07-20T05:46:46;87135.16;;;16.16;96.91
43838;BME280;65998;46.256;7.534;2023-07-20T05:49:12;87139.75;;;16.25;100.00
43838;BME280;65998;46.256;7.534;2023-07-20T05:51:37;87141.38;;;16.41;100.00
43838;BME280;65998;46.256;7.534;2023-07-20T05:54:03;87134.34;;;16.44;100.00
43838;BME280;65998;46.256;7.534;2023-07-20T05:56:29;87135.59;;;16.49;100.00
43838;BME280;65998;46.256;7.534;2023-07-20T05:58:55;87145.22;;;16.52;100.00
43838;BME280;65998;46.256;7.534;2023-07-20T06:01:21;87139.31;;;16.67;100.00
43838;BME280;65998;46.256;7.534;2023-07-20T06:03:47;87137.78;;;16.72;100.00
43838;BME280;65998;46.256;7.534;2023-07-20T06:06:13;87139.19;;;16.71;100.00
43838;BME280;65998;46.256;7.534;2023-07-20T06:08:39;87134.25;;;16.73;100.00
43838;BME280;65998;46.256;7.534;2023-07-20T06:11:05;87134.09;;;16.29;100.00
43838;BME280;65998;46.256;7.534;2023-07-20T06:13:30;87132.31;;;16.18;100.00
43838;BME280;65998;46.256;7.534;2023-07-20T06:15:56;87134.38;;;16.19;100.00
43838;BME280;65998;46.256;7.534;2023-07-20T06:18:23;87129.94;;;16.28;100.00
43838;BME280;65998;46.256;7.534;2023-07-20T06:20:52;87124.06;;;16.41;100.00
43838;BME280;65998;46.256;7.534;2023-07-20T06:23:19;87122.66;;;16.67;100.00
43838;BME280;65998;46.256;7.534;2023-07-20T06:25:45;87125.69;;;16.81;100.00
43838;BME280;65998;46.256;7.534;2023-07-20T06:28:12;87124.16;;;16.86;100.00
43838;BME280;65998;46.256;7.534;2023-07-20T06:30:38;87123.28;;;16.92;100.00
43838;BME280;65998;46.256;7.534;2023-07-20T06:33:04;87123.66;;;17.03;100.00
43838;BME280;65998;46.256;7.534;2023-07-20T06:35:29;87120.19;;;17.02;100.00
43838;BME280;65998;46.256;7.534;2023-07-20T06:37:55;87121.78;;;17.18;100.00
43838;BME280;65998;46.256;7.534;2023-07-20T06:40:21;87120.06;;;17.06;100.00
43838;BME280;65998;46.256;7.534;2023-07-20T06:42:47;87116.81;;;16.77;100.00
43838;BME280;65998;46.256;7.534;2023-07-20T06:45:13;87120.25;;;16.77;100.00
43838;BME280;65998;46.256;7.534;2023-07-20T06:47:39;87121.81;;;16.95;100.00
43838;BME280;65998;46.256;7.534;2023-07-20T06:50:06;87122.03;;;17.10;100.00
43838;BME280;65998;46.256;7.534;2023-07-20T06:52:33;87122.53;;;16.71;100.00
43838;BME280;65998;46.256;7.534;2023-07-20T06:54:59;87128.84;;;16.92;100.00
43838;BME280;65998;46.256;7.534;2023-07-20T06:57:25;87122.22;;;17.04;100.00
43838;BME280;65998;46.256;7.534;2023-07-20T06:59:51;87118.59;;;17.09;100.00
43838;BME280;65998;46.256;7.534;2023-07-20T07:02:17;87118.81;;;17.24;100.00
43838;BME280;65998;46.256;7.534;2023-07-20T07:04:52;87126.63;;;17.40;100.00
43838;BME280;65998;46.256;7.534;2023-07-20T07:07:18;87118.97;;;17.41;100.00
43838;BME280;65998;46.256;7.534;2023-07-20T07:09:44;87122.97;;;17.46;100.00
43838;BME280;65998;46.256;7.534;2023-07-20T07:12:10;87112.25;;;17.34;93.54
43838;BME280;65998;46.256;7.534;2023-07-20T07:14:35;87116.81;;;17.43;94.56
43838;BME280;65998;46.256;7.534;2023-07-20T07:17:01;87108.00;;;17.58;96.87
43838;BME280;65998;46.256;7.534;2023-07-20T07:19:27;87111.31;;;17.85;97.36
43838;BME280;65998;46.256;7.534;2023-07-20T07:21:53;87112.06;;;17.83;90.87
43838;BME280;65998;46.256;7.534;2023-07-20T07:24:18;87107.19;;;17.84;88.56
43838;BME280;65998;46.256;7.534;2023-07-20T07:26:45;87108.31;;;17.91;93.98
43838;BME280;65998;46.256;7.534;2023-07-20T07:29:10;87106.28;;;17.90;90.30
43838;BME280;65998;46.256;7.534;2023-07-20T07:31:36;87112.03;;;18.04;100.00
43838;BME280;65998;46.256;7.534;2023-07-20T07:34:02;87095.22;;;17.67;95.28
43838;BME280;65998;46.256;7.534;2023-07-20T07:36:28;87105.47;;;17.93;100.00
43838;BME280;65998;46.256;7.534;2023-07-20T07:38:54;87097.78;;;18.14;100.00
43838;BME280;65998;46.256;7.534;2023-07-20T07:41:20;87096.13;;;18.22;82.88
43838;BME280;65998;46.256;7.534;2023-07-20T07:43:46;87101.69;;;18.61;95.70
43838;BME280;65998;46.256;7.534;2023-07-20T07:46:12;87100.44;;;18.77;95.24
43838;BME280;65998;46.256;7.534;2023-07-20T07:48:37;87096.38;;;18.34;89.50
43838;BME280;65998;46.256;7.534;2023-07-20T07:51:03;87097.88;;;17.92;87.65
43838;BME280;65998;46.256;7.534;2023-07-20T07:53:29;87096.00;;;18.26;100.00
43838;BME280;65998;46.256;7.534;2023-07-20T07:55:55;87092.72;;;18.59;97.45
43838;BME280;65998;46.256;7.534;2023-07-20T07:58:21;87093.19;;;18.65;89.17
43838;BME280;65998;46.256;7.534;2023-07-20T08:00:47;87088.91;;;18.87;88.90
43838;BME280;65998;46.256;7.534;2023-07-20T08:03:12;87091.75;;;18.66;84.69
43838;BME280;65998;46.256;7.534;2023-07-20T08:05:38;87092.59;;;19.00;88.82
43838;BME280;65998;46.256;7.534;2023-07-20T08:08:04;87091.97;;;19.17;95.23
43838;BME280;65998;46.256;7.534;2023-07-20T08:10:31;87081.97;;;19.05;82.99
43838;BME280;65998;46.256;7.534;2023-07-20T08:12:57;87082.25;;;19.16;81.53
43838;BME280;65998;46.256;7.534;2023-07-20T08:15:23;87085.06;;;19.32;78.41
43838;BME280;65998;46.256;7.534;2023-07-20T08:17:49;87082.59;;;19.24;79.70
43838;BME280;65998;46.256;7.534;2023-07-20T08:20:15;87085.59;;;19.37;80.39
43838;BME280;65998;46.256;7.534;2023-07-20T08:22:40;87082.84;;;19.54;72.33
43838;BME280;65998;46.256;7.534;2023-07-20T08:25:07;87082.84;;;19.54;80.90
43838;BME280;65998;46.256;7.534;2023-07-20T08:27:33;87078.34;;;19.80;72.49
43838;BME280;65998;46.256;7.534;2023-07-20T08:29:59;87076.31;;;19.78;77.06
43838;BME280;65998;46.256;7.534;2023-07-20T08:32:25;87071.41;;;19.79;70.69
43838;BME280;65998;46.256;7.534;2023-07-20T08:34:52;87074.94;;;19.94;67.08
43838;BME280;65998;46.256;7.534;2023-07-20T08:37:18;87071.41;;;19.79;65.01
43838;BME280;65998;46.256;7.534;2023-07-20T08:39:44;87068.16;;;20.39;64.74
43838;BME280;65998;46.256;7.534;2023-07-20T08:42:10;87070.59;;;21.69;60.36
43838;BME280;65998;46.256;7.534;2023-07-20T08:44:37;87070.31;;;22.59;54.08
43838;BME280;65998;46.256;7.534;2023-07-20T08:47:04;87068.31;;;22.58;52.02
43838;BME280;65998;46.256;7.534;2023-07-20T08:49:31;87057.88;;;22.29;49.46
43838;BME280;65998;46.256;7.534;2023-07-20T08:51:58;87055.34;;;22.38;51.41
43838;BME280;65998;46.256;7.534;2023-07-20T08:54:27;87055.22;;;22.95;51.25
43838;BME280;65998;46.256;7.534;2023-07-20T08:56:56;87047.00;;;23.69;47.13
43838;BME280;65998;46.256;7.534;2023-07-20T08:59:24;87043.47;;;24.32;48.40
43838;BME280;65998;46.256;7.534;2023-07-20T09:01:51;87053.50;;;25.11;47.27
43838;BME280;65998;46.256;7.534;2023-07-20T09:04:18;87049.53;;;25.53;44.70
43838;BME280;65998;46.256;7.534;2023-07-20T09:06:44;87050.50;;;26.05;43.10
43838;BME280;65998;46.256;7.534;2023-07-20T09:09:10;87042.09;;;25.71;42.67
43838;BME280;65998;46.256;7.534;2023-07-20T09:11:35;87043.69;;;24.64;44.58
43838;BME280;65998;46.256;7.534;2023-07-20T09:14:06;87033.72;;;24.05;46.32
43838;BME280;65998;46.256;7.534;2023-07-20T09:16:32;87037.47;;;23.64;49.29
43838;BME280;65998;46.256;7.534;2023-07-20T09:18:59;87033.97;;;23.25;48.89
43838;BME280;65998;46.256;7.534;2023-07-20T09:21:29;87040.03;;;23.17;48.96
43838;BME280;65998;46.256;7.534;2023-07-20T09:23:56;87037.41;;;23.00;47.72
43838;BME280;65998;46.256;7.534;2023-07-20T09:26:22;87036.28;;;22.68;51.14
43838;BME280;65998;46.256;7.534;2023-07-20T09:28:52;87033.69;;;22.63;48.66
43838;BME280;65998;46.256;7.534;2023-07-20T09:31:19;87033.34;;;22.57;50.43
43838;BME280;65998;46.256;7.534;2023-07-20T09:33:50;87025.56;;;22.45;48.58
43838;BME280;65998;46.256;7.534;2023-07-20T09:36:17;87022.63;;;22.34;48.81
43838;BME280;65998;46.256;7.534;2023-07-20T09:38:43;87015.69;;;22.33;49.73
43838;BME280;65998;46.256;7.534;2023-07-20T09:41:13;87014.22;;;22.34;50.55
43838;BME280;65998;46.256;7.534;2023-07-20T09:43:40;87008.88;;;22.43;51.85
43838;BME280;65998;46.256;7.534;2023-07-20T09:46:06;87000.34;;;22.32;48.62
43838;BME280;65998;46.256;7.534;2023-07-20T09:48:31;87000.34;;;22.32;49.87
43838;BME280;65998;46.256;7.534;2023-07-20T09:50:57;87004.06;;;22.41;48.49
43838;BME280;65998;46.256;7.534;2023-07-20T09:53:25;86998.34;;;22.43;48.86
43838;BME280;65998;46.256;7.534;2023-07-20T09:55:52;87001.50;;;22.50;50.89
43838;BME280;65998;46.256;7.534;2023-07-20T09:58:18;86990.41;;;22.48;49.79
43838;BME280;65998;46.256;7.534;2023-07-20T10:00:45;86993.13;;;22.50;51.43
43838;BME280;65998;46.256;7.534;2023-07-20T10:03:14;86988.41;;;22.46;49.64
43838;BME280;65998;46.256;7.534;2023-07-20T10:05:43;86987.41;;;22.52;52.33
43838;BME280;65998;46.256;7.534;2023-07-20T10:08:12;86985.16;;;22.54;51.60
43838;BME280;65998;46.256;7.534;2023-07-20T10:10:41;86983.78;;;22.41;50.47
43838;BME280;65998;46.256;7.534;2023-07-20T10:13:10;86978.19;;;22.41;51.12
43838;BME280;65998;46.256;7.534;2023-07-20T10:15:44;86978.34;;;22.51;52.06
43838;BME280;65998;46.256;7.534;2023-07-20T10:20:39;86962.53;;;22.46;54.68
43838;BME280;65998;46.256;7.534;2023-07-20T10:23:06;86973.91;;;22.29;54.40
43838;BME280;65998;46.256;7.534;2023-07-20T10:25:33;86979.75;;;22.38;56.70
43838;BME280;65998;46.256;7.534;2023-07-20T10:27:59;86964.47;;;22.22;52.99
43838;BME280;65998;46.256;7.534;2023-07-20T10:30:26;86970.13;;;22.35;56.00
43838;BME280;65998;46.256;7.534;2023-07-20T10:32:52;86963.06;;;22.36;53.41
43838;BME280;65998;46.256;7.534;2023-07-20T10:35:18;86964.69;;;22.58;54.15
43838;BME280;65998;46.256;7.534;2023-07-20T10:37:52;86964.25;;;22.79;56.71
43838;BME280;65998;46.256;7.534;2023-07-20T10:40:38;86958.00;;;22.78;51.38
43838;BME280;65998;46.256;7.534;2023-07-20T10:43:09;86962.56;;;22.71;51.09
43838;BME280;65998;46.256;7.534;2023-07-20T10:45:52;86954.72;;;22.74;55.13
43838;BME280;65998;46.256;7.534;2023-07-20T10:48:23;86966.56;;;22.89;56.39
43838;BME280;65998;46.256;7.534;2023-07-20T10:51:14;86950.19;;;22.81;56.72
43838;BME280;65998;46.256;7.534;2023-07-20T10:53:45;86954.66;;;22.88;58.20
43838;BME280;65998;46.256;7.534;2023-07-20T10:56:19;86947.22;;;22.70;55.55
43838;BME280;65998;46.256;7.534;2023-07-20T10:58:46;86952.56;;;22.89;52.46
43838;BME280;65998;46.256;7.534;2023-07-20T11:01:18;86942.34;;;22.96;56.15
43838;BME280;65998;46.256;7.534;2023-07-20T11:03:49;86945.28;;;23.07;56.27
43838;BME280;65998;46.256;7.534;2023-07-20T11:09:09;86939.00;;;23.19;52.74
43838;BME280;65998;46.256;7.534;2023-07-20T11:11:35;86930.03;;;23.16;53.94
43838;BME280;65998;46.256;7.534;2023-07-20T11:14:04;86931.00;;;23.36;52.90
43838;BME280;65998;46.256;7.534;2023-07-20T11:16:40;86935.72;;;23.27;51.77
43838;BME280;65998;46.256;7.534;2023-07-20T11:19:17;86931.13;;;23.34;50.99
43838;BME280;65998;46.256;7.534;2023-07-20T11:21:49;86930.00;;;23.42;54.29
43838;BME280;65998;46.256;7.534;2023-07-20T11:24:15;86931.25;;;23.19;52.39
43838;BME280;65998;46.256;7.534;2023-07-20T11:26:49;86926.63;;;23.39;51.31
43838;BME280;65998;46.256;7.534;2023-07-20T11:29:17;86930.69;;;23.17;54.04
43838;BME280;65998;46.256;7.534;2023-07-20T11:31:44;86923.81;;;23.39;51.62
43838;BME280;65998;46.256;7.534;2023-07-20T11:34:13;86922.50;;;23.25;51.91
43838;BME280;65998;46.256;7.534;2023-07-20T11:36:44;86914.31;;;23.34;50.29
43838;BME280;65998;46.256;7.534;2023-07-20T11:39:13;86907.03;;;23.27;49.50
43838;BME280;65998;46.256;7.534;2023-07-20T11:41:43;86906.78;;;23.43;51.33
43838;BME280;65998;46.256;7.534;2023-07-20T11:44:10;86900.06;;;23.38;52.54
43838;BME280;65998;46.256;7.534;2023-07-20T11:46:36;86898.50;;;23.29;50.26
43838;BME280;65998;46.256;7.534;2023-07-20T11:49:02;86904.19;;;23.39;49.48
43838;BME280;65998;46.256;7.534;2023-07-20T11:51:28;86896.41;;;23.65;52.22
43838;BME280;65998;46.256;7.534;2023-07-20T11:53:56;86885.78;;;23.55;52.38
43838;BME280;65998;46.256;7.534;2023-07-20T11:56:24;86891.50;;;23.53;49.79
43838;BME280;65998;46.256;7.534;2023-07-20T11:58:53;86892.84;;;23.54;52.31
43838;BME280;65998;46.256;7.534;2023-07-20T12:01:19;86882.03;;;23.71;49.73
43838;BME280;65998;46.256;7.534;2023-07-20T12:03:47;86888.25;;;23.61;50.09
43838;BME280;65998;46.256;7.534;2023-07-20T12:06:13;86869.34;;;23.72;47.24
43838;BME280;65998;46.256;7.534;2023-07-20T12:08:43;86878.56;;;23.71;50.83
43838;BME280;65998;46.256;7.534;2023-07-20T12:11:09;86869.59;;;24.04;51.08
43838;BME280;65998;46.256;7.534;2023-07-20T12:13:42;86869.84;;;23.87;48.34
43838;BME280;65998;46.256;7.534;2023-07-20T12:16:10;86862.09;;;23.88;49.34
43838;BME280;65998;46.256;7.534;2023-07-20T12:18:37;86866.03;;;23.93;48.41
43838;BME280;65998;46.256;7.534;2023-07-20T12:21:03;86860.16;;;23.74;49.32
43838;BME280;65998;46.256;7.534;2023-07-20T12:23:35;86850.81;;;23.41;49.44
43838;BME280;65998;46.256;7.534;2023-07-20T12:26:01;86858.28;;;23.58;51.90
43838;BME280;65998;46.256;7.534;2023-07-20T12:28:27;86841.84;;;23.75;50.09
43838;BME280;65998;46.256;7.534;2023-07-20T12:30:53;86852.28;;;23.76;49.65
43838;BME280;65998;46.256;7.534;2023-07-20T12:33:19;86850.53;;;23.94;49.39
43838;BME280;65998;46.256;7.534;2023-07-20T12:35:44;86839.06;;;23.98;48.97
43838;BME280;65998;46.256;7.534;2023-07-20T12:38:10;86834.28;;;23.84;52.24
43838;BME280;65998;46.256;7.534;2023-07-20T12:40:36;86834.06;;;23.88;51.96
43838;BME280;65998;46.256;7.534;2023-07-20T12:43:02;86834.13;;;23.99;49.74
43838;BME280;65998;46.256;7.534;2023-07-20T12:45:28;86828.19;;;24.15;51.54
43838;BME280;65998;46.256;7.534;2023-07-20T12:47:54;86828.03;;;24.30;53.20
43838;BME280;65998;46.256;7.534;2023-07-20T12:50:20;86824.53;;;24.30;52.76
43838;BME280;65998;46.256;7.534;2023-07-20T12:52:46;86815.06;;;24.35;53.48
43838;BME280;65998;46.256;7.534;2023-07-20T12:55:11;86811.34;;;24.39;53.11
43838;BME280;65998;46.256;7.534;2023-07-20T12:57:38;86811.63;;;24.45;53.16
43838;BME280;65998;46.256;7.534;2023-07-20T13:00:06;86808.16;;;24.45;53.33
43838;BME280;65998;46.256;7.534;2023-07-20T13:02:32;86805.97;;;24.35;51.40
43838;BME280;65998;46.256;7.534;2023-07-20T13:04:59;86803.59;;;24.39;53.41
43838;BME280;65998;46.256;7.534;2023-07-20T13:07:35;86813.41;;;24.51;52.91